createdAt,value
2022-11-26T00:00:57.767Z,96581.75
2022-11-26T00:05:59.444Z,96579.38
2022-11-26T00:11:01.745Z,96585.53
2022-11-26T00:16:03.752Z,96578.06
2022-11-26T00:21:22.624Z,96592.91
2022-11-26T00:26:25.642Z,96590.19
2022-11-26T00:31:28.792Z,96597.22
2022-11-26T00:36:33.032Z,96606.94
2022-11-26T00:41:38.806Z,96607.38
2022-11-26T00:46:40.610Z,96612.03
2022-11-26T00:51:43.519Z,96616.34
2022-11-26T00:56:46.264Z,96617.16
2022-11-26T01:01:47.960Z,96627.66
2022-11-26T01:06:51.048Z,96630.38
2022-11-26T01:11:54.730Z,96628.44
2022-11-26T01:16:57.420Z,96640.94
2022-11-26T01:22:00.705Z,96645.22
2022-11-26T01:27:02.389Z,96649.88
2022-11-26T01:32:04.479Z,96656.13
2022-11-26T01:37:16.248Z,96661.56
2022-11-26T01:42:37.570Z,96672.13
2022-11-26T01:47:40.493Z,96668.25
2022-11-26T01:52:42.295Z,96667.47
2022-11-26T01:57:46.046Z,96672.56
2022-11-26T02:02:50.001Z,96681.13
2022-11-26T02:07:55.396Z,96686.25
2022-11-26T02:13:00.538Z,96679.63
2022-11-26T02:18:07.140Z,96686.69
2022-11-26T02:23:24.130Z,96680.09
2022-11-26T02:28:38.558Z,96673.84
2022-11-26T02:33:57.581Z,96677.72
2022-11-26T02:39:11.984Z,96691.69
2022-11-26T02:44:16.055Z,96694.06
2022-11-26T02:49:21.593Z,96698.72
2022-11-26T02:54:26.029Z,96700.31
2022-11-26T02:59:28.429Z,96696.44
2022-11-26T03:04:38.115Z,96708.91
2022-11-26T03:10:01.363Z,96715.50
2022-11-26T03:15:03.278Z,96717.44
2022-11-26T03:20:05.928Z,96718.22
2022-11-26T03:25:08.449Z,96729.91
2022-11-26T03:30:10.833Z,96721.38
2022-11-26T03:35:12.545Z,96720.22
2022-11-26T03:40:16.868Z,96721.03
2022-11-26T03:45:18.762Z,96733.16
2022-11-26T03:50:20.505Z,96738.63
2022-11-26T03:55:22.128Z,96740.91
2022-11-26T04:00:24.146Z,96750.63
2022-11-26T04:05:25.784Z,96747.13
2022-11-26T04:10:27.489Z,96758.03
2022-11-26T04:15:30.184Z,96764.25
2022-11-26T04:20:31.823Z,96762.69
2022-11-26T04:25:33.555Z,96774.03
2022-11-26T04:30:35.328Z,96775.97
2022-11-26T04:35:38.258Z,96771.66
2022-11-26T04:40:39.900Z,96772.38
2022-11-26T04:45:41.745Z,96792.47
2022-11-26T04:50:43.374Z,96798.72
2022-11-26T04:55:45.074Z,96805.31
2022-11-26T05:00:50.709Z,96811.81
2022-11-26T05:05:54.140Z,96829.66
2022-11-26T05:10:55.832Z,96833.53
2022-11-26T05:15:57.448Z,96830.72
2022-11-26T05:20:59.127Z,96835.72
2022-11-26T05:26:00.829Z,96841.97
2022-11-26T05:31:03.725Z,96844.31
2022-11-26T05:36:05.530Z,96846.72
2022-11-26T05:41:07.226Z,96848.66
2022-11-26T05:46:09.704Z,96867.00
2022-11-26T05:51:11.788Z,96867.72
2022-11-26T05:56:13.828Z,96873.16
2022-11-26T06:01:15.474Z,96867.72
2022-11-26T06:06:17.296Z,96873.94
2022-11-26T06:11:19.026Z,96876.31
2022-11-26T06:16:20.845Z,96876.41
2022-11-26T06:21:22.532Z,96887.75
2022-11-26T06:26:24.339Z,96884.22
2022-11-26T06:31:26.128Z,96887.75
2022-11-26T06:36:27.798Z,96892.50
2022-11-26T06:41:29.926Z,96892.03
2022-11-26T06:46:34.226Z,96897.16
2022-11-26T06:51:35.934Z,96917.47
2022-11-26T06:56:37.629Z,96916.31
2022-11-26T07:01:39.985Z,96928.78
2022-11-26T07:06:41.841Z,96933.09
2022-11-26T07:11:43.569Z,96934.59
2022-11-26T07:16:45.178Z,96947.31
2022-11-26T07:21:47.118Z,96945.63
2022-11-26T07:26:48.829Z,96957.69
2022-11-26T07:31:50.712Z,96962.34
2022-11-26T07:36:57.756Z,96960.06
2022-11-26T07:41:59.750Z,96961.19
2022-11-26T07:47:02.348Z,96961.31
2022-11-26T07:52:04.244Z,96967.16
2022-11-26T07:57:06.152Z,96975.44
2022-11-26T08:02:12.705Z,96981.78
2022-11-26T08:07:20.134Z,96983.81
2022-11-26T08:12:26.347Z,96993.56
2022-11-26T08:17:28.459Z,96994.34
2022-11-26T08:22:30.632Z,96995.16
2022-11-26T08:27:33.235Z,96992.19
2022-11-26T08:32:35.637Z,96985.25
2022-11-26T08:37:37.228Z,96994.66
2022-11-26T08:42:38.866Z,96993.50
2022-11-26T08:47:40.433Z,97007.13
2022-11-26T08:52:45.183Z,97002.00
2022-11-26T08:57:47.337Z,97020.66
2022-11-26T09:02:49.113Z,97015.03
2022-11-26T09:07:50.843Z,97035.13
2022-11-26T09:12:52.636Z,97037.06
2022-11-26T09:17:54.866Z,97040.91
2022-11-26T09:22:56.537Z,97062.25
2022-11-26T09:27:58.161Z,97063.41
2022-11-26T09:32:59.848Z,97080.34
2022-11-26T09:38:01.483Z,97073.22
2022-11-26T09:43:13.967Z,97066.97
2022-11-26T09:48:23.203Z,97068.22
2022-11-26T09:53:30.924Z,97071.06
2022-11-26T09:59:00.027Z,97068.88
2022-11-26T10:04:02.141Z,97081.13
2022-11-26T10:09:24.959Z,97070.75
2022-11-26T10:14:37.924Z,97063.13
2022-11-26T10:19:42.692Z,97055.47
2022-11-26T10:24:44.570Z,97054.56
2022-11-26T10:29:50.964Z,97045.88
2022-11-26T10:34:54.983Z,97052.75
2022-11-26T10:40:17.005Z,97048.25
2022-11-26T10:45:24.973Z,97047.22
2022-11-26T10:55:49.459Z,97051.63
2022-11-26T11:00:51.060Z,97046.16
2022-11-26T11:06:30.453Z,97051.34
2022-11-26T11:11:32.343Z,97052.66
2022-11-26T11:16:44.195Z,97051.00
2022-11-26T11:21:48.399Z,97042.13
2022-11-26T11:26:55.391Z,97044.22
2022-11-26T11:31:57.924Z,97043.34
2022-11-26T11:37:14.851Z,97041.41
2022-11-26T11:42:29.290Z,97056.03
2022-11-26T11:47:44.173Z,97056.28
2022-11-26T11:52:48.869Z,97058.94
2022-11-26T11:58:28.196Z,97060.78
2022-11-26T12:03:50.542Z,97058.38
2022-11-26T12:09:04.464Z,97059.19
2022-11-26T12:14:20.957Z,97067.00
2022-11-26T12:19:39.212Z,97063.75
2022-11-26T12:24:54.991Z,97060.84
2022-11-26T12:30:06.308Z,97072.03
2022-11-26T12:35:15.809Z,97074.66
2022-11-26T12:40:30.454Z,97071.16
2022-11-26T12:45:35.126Z,97060.91
2022-11-26T12:50:43.423Z,97061.75
2022-11-26T12:56:04.662Z,97058.31
2022-11-26T13:01:06.493Z,97063.38
2022-11-26T13:06:24.539Z,97068.16
2022-11-26T13:11:34.979Z,97074.75
2022-11-26T13:16:51.663Z,97055.13
2022-11-26T13:22:20.547Z,97060.13
2022-11-26T13:27:57.155Z,97068.91
2022-11-26T13:33:10.967Z,97063.47
2022-11-26T13:38:32.391Z,97062.41
2022-11-26T13:43:56.106Z,97061.03
2022-11-26T13:49:03.887Z,97060.31
2022-11-26T13:54:20.953Z,97068.69
2022-11-26T13:59:28.587Z,97060.59
2022-11-26T14:04:33.500Z,97058.66
2022-11-26T14:09:47.595Z,97059.09
2022-11-26T14:14:50.759Z,97065.06
2022-11-26T14:19:55.820Z,97068.97
2022-11-26T14:25:00.553Z,97063.06
2022-11-26T14:30:08.654Z,97057.41
2022-11-26T14:35:34.632Z,97055.22
2022-11-26T14:40:38.536Z,97053.56
2022-11-26T14:45:40.669Z,97064.34
2022-11-26T14:50:43.219Z,97058.38
2022-11-26T14:55:46.275Z,97065.91
2022-11-26T15:01:29.248Z,97078.97
2022-11-26T15:06:38.264Z,97078.78
2022-11-26T15:12:03.713Z,97086.41
2022-11-26T15:17:06.279Z,97084.25
2022-11-26T15:22:19.499Z,97100.84
2022-11-26T15:27:28.564Z,97094.16
2022-11-26T15:32:32.888Z,97102.25
2022-11-26T15:37:34.557Z,97114.63
2022-11-26T15:42:36.513Z,97100.47
2022-11-26T15:47:38.441Z,97095.25
2022-11-26T15:52:42.913Z,97091.63
2022-11-26T15:57:50.088Z,97101.75
2022-11-26T16:02:52.322Z,97105.16
2022-11-26T16:08:02.966Z,97109.59
2022-11-26T16:13:11.878Z,97110.97
2022-11-26T16:18:21.620Z,97105.75
2022-11-26T16:23:29.629Z,97107.91
2022-11-26T16:28:32.064Z,97097.38
2022-11-26T16:33:33.938Z,97099.06
2022-11-26T16:38:35.532Z,97096.56
2022-11-26T16:43:37.131Z,97091.38
2022-11-26T16:48:39.258Z,97097.03
2022-11-26T16:53:41.250Z,97093.06
2022-11-26T16:58:43.305Z,97093.66
2022-11-26T17:03:45.751Z,97107.81
2022-11-26T17:08:49.881Z,97109.16
2022-11-26T17:13:52.304Z,97111.28
2022-11-26T17:18:54.086Z,97116.63
2022-11-26T17:23:55.730Z,97114.91
2022-11-26T17:28:57.469Z,97120.09
2022-11-26T17:33:59.528Z,97117.59
2022-11-26T17:39:01.465Z,97118.97
2022-11-26T17:44:03.155Z,97123.00
2022-11-26T17:49:04.959Z,97122.66
2022-11-26T17:54:06.586Z,97118.06
2022-11-26T17:59:08.355Z,97120.66
2022-11-26T18:04:09.942Z,97127.56
2022-11-26T18:09:11.751Z,97138.28
2022-11-26T18:14:14.429Z,97145.97
2022-11-26T18:19:17.765Z,97140.41
2022-11-26T18:24:19.564Z,97144.13
2022-11-26T18:29:21.605Z,97157.13
2022-11-26T18:34:23.854Z,97157.78
2022-11-26T18:39:25.854Z,97163.88
2022-11-26T18:44:30.724Z,97153.34
2022-11-26T18:49:33.576Z,97148.91
2022-11-26T18:54:35.184Z,97146.06
2022-11-26T18:59:37.324Z,97147.84
2022-11-26T19:04:39.262Z,97141.16
2022-11-26T19:09:41.698Z,97147.72
2022-11-26T19:14:46.890Z,97143.75
2022-11-26T19:19:48.582Z,97148.72
2022-11-26T19:24:50.357Z,97138.97
2022-11-26T19:29:52.293Z,97139.31
2022-11-26T19:34:54.661Z,97136.59
2022-11-26T19:39:56.918Z,97123.03
2022-11-26T19:44:58.607Z,97125.25
2022-11-26T19:50:00.297Z,97113.47
2022-11-26T19:55:02.574Z,97108.69
2022-11-26T20:00:05.260Z,97106.66
2022-11-26T20:05:09.007Z,97097.91
2022-11-26T20:10:11.956Z,97100.00
2022-11-26T20:15:13.698Z,97095.44
2022-11-26T20:20:15.595Z,97098.34
2022-11-26T20:25:17.346Z,97094.38
2022-11-26T20:30:20.321Z,97101.25
2022-11-26T20:35:24.226Z,97098.41
2022-11-26T20:40:26.205Z,97095.88
2022-11-26T20:45:29.186Z,97089.38
2022-11-26T20:50:31.354Z,97097.25
2022-11-26T20:55:33.163Z,97092.31
2022-11-26T21:00:35.744Z,97085.50
2022-11-26T21:05:39.136Z,97091.13
2022-11-26T21:10:41.312Z,97085.09
2022-11-26T21:15:47.793Z,97082.22
2022-11-26T21:20:49.510Z,97087.81
2022-11-26T21:25:51.667Z,97081.78
2022-11-26T21:30:54.257Z,97081.66
2022-11-26T21:35:56.470Z,97083.41
2022-11-26T21:41:03.674Z,97082.94
2022-11-26T21:46:07.089Z,97083.75
2022-11-26T21:51:12.109Z,97088.56
2022-11-26T21:56:20.502Z,97093.81
2022-11-26T22:01:27.257Z,97088.75
2022-11-26T22:06:29.681Z,97089.06
2022-11-26T22:11:36.073Z,97088.56
2022-11-26T22:16:37.900Z,97092.72
2022-11-26T22:21:41.739Z,97094.16
2022-11-26T22:26:44.126Z,97105.34
2022-11-26T22:31:48.247Z,97107.09
2022-11-26T22:36:50.032Z,97103.59
2022-11-26T22:41:51.638Z,97105.81
2022-11-26T22:46:53.259Z,97114.59
2022-11-26T22:51:54.973Z,97109.00
2022-11-26T22:56:57.542Z,97116.81
2022-11-26T23:01:59.745Z,97110.47
2022-11-26T23:07:01.524Z,97106.31
2022-11-26T23:12:03.385Z,97099.47
2022-11-26T23:17:06.461Z,97095.00
2022-11-26T23:22:08.182Z,97083.22
2022-11-26T23:27:10.421Z,97087.81
2022-11-26T23:32:12.268Z,97069.69
2022-11-26T23:37:14.107Z,97073.34
2022-11-26T23:42:17.669Z,97067.00
2022-11-26T23:47:19.288Z,97064.91
2022-11-26T23:52:20.949Z,97061.25
2022-11-26T23:57:22.735Z,97064.91
